sensor_id;sensor_type;location;lat;lon;timestamp;P1;durP1;ratioP1;P2;durP2;ratioP2
43678;SDS011;29279;50.858;4.392;2023-02-28T00:00:24;10.98;;;4.50;;
43678;SDS011;29279;50.858;4.392;2023-02-28T00:02:50;12.70;;;4.80;;
43678;SDS011;29279;50.858;4.392;2023-02-28T00:05:18;10.75;;;5.60;;
43678;SDS011;29279;50.858;4.392;2023-02-28T00:07:45;12.40;;;5.00;;
43678;SDS011;29279;50.858;4.392;2023-02-28T00:10:13;10.43;;;4.53;;
43678;SDS011;29279;50.858;4.392;2023-02-28T00:12:45;11.10;;;5.20;;
43678;SDS011;29279;50.858;4.392;2023-02-28T00:15:20;17.90;;;5.60;;
43678;SDS011;29279;50.858;4.392;2023-02-28T00:17:47;25.42;;;8.05;;
43678;SDS011;29279;50.858;4.392;2023-02-28T00:20:13;32.75;;;17.58;;
43678;SDS011;29279;50.858;4.392;2023-02-28T00:22:40;51.13;;;28.13;;
43678;SDS011;29279;50.858;4.392;2023-02-28T00:25:10;72.85;;;36.47;;
43678;SDS011;29279;50.858;4.392;2023-02-28T00:27:39;52.22;;;29.02;;
43678;SDS011;29279;50.858;4.392;2023-02-28T00:30:06;54.45;;;25.10;;
43678;SDS011;29279;50.858;4.392;2023-02-28T00:32:33;27.40;;;16.73;;
43678;SDS011;29279;50.858;4.392;2023-02-28T00:35:02;28.30;;;14.30;;
43678;SDS011;29279;50.858;4.392;2023-02-28T00:37:28;23.10;;;10.88;;
43678;SDS011;29279;50.858;4.392;2023-02-28T00:39:56;24.88;;;9.73;;
43678;SDS011;29279;50.858;4.392;2023-02-28T00:42:22;15.38;;;7.60;;
43678;SDS011;29279;50.858;4.392;2023-02-28T00:44:48;20.40;;;7.38;;
43678;SDS011;29279;50.858;4.392;2023-02-28T00:47:14;17.60;;;7.25;;
43678;SDS011;29279;50.858;4.392;2023-02-28T00:49:40;12.40;;;7.20;;
43678;SDS011;29279;50.858;4.392;2023-02-28T00:52:05;19.75;;;6.68;;
43678;SDS011;29279;50.858;4.392;2023-02-28T00:54:31;15.85;;;7.20;;
43678;SDS011;29279;50.858;4.392;2023-02-28T00:56:57;14.35;;;6.28;;
43678;SDS011;29279;50.858;4.392;2023-02-28T00:59:23;14.82;;;6.43;;
43678;SDS011;29279;50.858;4.392;2023-02-28T01:01:52;15.23;;;5.50;;
43678;SDS011;29279;50.858;4.392;2023-02-28T01:04:17;22.13;;;6.30;;
43678;SDS011;29279;50.858;4.392;2023-02-28T01:06:43;16.00;;;6.28;;
43678;SDS011;29279;50.858;4.392;2023-02-28T01:09:09;15.50;;;6.47;;
43678;SDS011;29279;50.858;4.392;2023-02-28T01:11:39;12.07;;;6.07;;
43678;SDS011;29279;50.858;4.392;2023-02-28T01:14:06;13.98;;;6.10;;
43678;SDS011;29279;50.858;4.392;2023-02-28T01:16:33;15.50;;;5.78;;
43678;SDS011;29279;50.858;4.392;2023-02-28T01:18:59;11.02;;;6.13;;
43678;SDS011;29279;50.858;4.392;2023-02-28T01:21:24;12.85;;;5.55;;
43678;SDS011;29279;50.858;4.392;2023-02-28T01:23:50;18.83;;;5.88;;
43678;SDS011;29279;50.858;4.392;2023-02-28T01:26:18;11.35;;;4.82;;
43678;SDS011;29279;50.858;4.392;2023-02-28T01:28:45;13.60;;;5.20;;
43678;SDS011;29279;50.858;4.392;2023-02-28T01:31:11;22.02;;;7.15;;
43678;SDS011;29279;50.858;4.392;2023-02-28T01:33:38;12.95;;;5.70;;
43678;SDS011;29279;50.858;4.392;2023-02-28T01:36:05;19.02;;;6.70;;
43678;SDS011;29279;50.858;4.392;2023-02-28T01:38:34;14.65;;;6.43;;
43678;SDS011;29279;50.858;4.392;2023-02-28T01:41:00;12.73;;;4.63;;
43678;SDS011;29279;50.858;4.392;2023-02-28T01:43:29;13.80;;;6.13;;
43678;SDS011;29279;50.858;4.392;2023-02-28T01:46:21;11.88;;;5.60;;
43678;SDS011;29279;50.858;4.392;2023-02-28T01:51:48;14.63;;;6.05;;
43678;SDS011;29279;50.858;4.392;2023-02-28T01:54:21;13.95;;;5.82;;
43678;SDS011;29279;50.858;4.392;2023-02-28T01:56:55;18.95;;;5.82;;
43678;SDS011;29279;50.858;4.392;2023-02-28T01:59:30;14.40;;;6.60;;
43678;SDS011;29279;50.858;4.392;2023-02-28T02:02:00;13.80;;;6.45;;
43678;SDS011;29279;50.858;4.392;2023-02-28T02:04:27;20.05;;;6.72;;
43678;SDS011;29279;50.858;4.392;2023-02-28T02:07:02;13.60;;;6.20;;
43678;SDS011;29279;50.858;4.392;2023-02-28T02:09:29;15.55;;;6.43;;
43678;SDS011;29279;50.858;4.392;2023-02-28T02:11:54;11.07;;;6.35;;
43678;SDS011;29279;50.858;4.392;2023-02-28T02:29:01;12.38;;;6.63;;
43678;SDS011;29279;50.858;4.392;2023-02-28T02:36:47;11.65;;;7.28;;
43678;SDS011;29279;50.858;4.392;2023-02-28T02:39:29;12.00;;;6.45;;
43678;SDS011;29279;50.858;4.392;2023-02-28T02:41:59;16.85;;;6.30;;
43678;SDS011;29279;50.858;4.392;2023-02-28T02:44:39;18.23;;;6.97;;
43678;SDS011;29279;50.858;4.392;2023-02-28T02:47:19;14.35;;;7.72;;
43678;SDS011;29279;50.858;4.392;2023-02-28T02:49:58;21.00;;;8.23;;
43678;SDS011;29279;50.858;4.392;2023-02-28T02:52:40;15.30;;;7.28;;
43678;SDS011;29279;50.858;4.392;2023-02-28T02:55:12;15.40;;;7.80;;
43678;SDS011;29279;50.858;4.392;2023-02-28T02:58:13;13.57;;;7.03;;
43678;SDS011;29279;50.858;4.392;2023-02-28T03:00:46;14.15;;;6.80;;
43678;SDS011;29279;50.858;4.392;2023-02-28T03:03:18;17.38;;;7.45;;
43678;SDS011;29279;50.858;4.392;2023-02-28T03:05:54;20.73;;;7.60;;
43678;SDS011;29279;50.858;4.392;2023-02-28T03:08:21;16.30;;;7.18;;
43678;SDS011;29279;50.858;4.392;2023-02-28T03:10:51;11.27;;;6.50;;
43678;SDS011;29279;50.858;4.392;2023-02-28T03:19:03;18.13;;;7.50;;
43678;SDS011;29279;50.858;4.392;2023-02-28T03:24:32;14.82;;;7.90;;
43678;SDS011;29279;50.858;4.392;2023-02-28T03:27:27;14.40;;;7.93;;
43678;SDS011;29279;50.858;4.392;2023-02-28T03:30:01;19.58;;;8.48;;
43678;SDS011;29279;50.858;4.392;2023-02-28T03:35:17;10.93;;;6.30;;
43678;SDS011;29279;50.858;4.392;2023-02-28T03:37:50;22.70;;;7.95;;
43678;SDS011;29279;50.858;4.392;2023-02-28T03:40:23;16.10;;;7.85;;
43678;SDS011;29279;50.858;4.392;2023-02-28T03:42:54;16.42;;;7.35;;
43678;SDS011;29279;50.858;4.392;2023-02-28T03:45:25;20.92;;;8.75;;
43678;SDS011;29279;50.858;4.392;2023-02-28T03:47:56;17.00;;;7.68;;
43678;SDS011;29279;50.858;4.392;2023-02-28T03:50:34;17.73;;;9.10;;
43678;SDS011;29279;50.858;4.392;2023-02-28T03:53:19;17.40;;;8.90;;
43678;SDS011;29279;50.858;4.392;2023-02-28T03:56:17;15.63;;;9.02;;
43678;SDS011;29279;50.858;4.392;2023-02-28T03:58:57;14.75;;;8.10;;
43678;SDS011;29279;50.858;4.392;2023-02-28T04:01:36;19.70;;;9.57;;
43678;SDS011;29279;50.858;4.392;2023-02-28T04:04:06;14.05;;;8.18;;
43678;SDS011;29279;50.858;4.392;2023-02-28T04:06:33;19.48;;;8.25;;
43678;SDS011;29279;50.858;4.392;2023-02-28T04:08:59;13.55;;;7.65;;
43678;SDS011;29279;50.858;4.392;2023-02-28T04:11:45;15.32;;;8.57;;
43678;SDS011;29279;50.858;4.392;2023-02-28T04:14:14;19.27;;;9.10;;
43678;SDS011;29279;50.858;4.392;2023-02-28T04:16:40;17.23;;;9.60;;
43678;SDS011;29279;50.858;4.392;2023-02-28T04:19:08;20.08;;;9.80;;
43678;SDS011;29279;50.858;4.392;2023-02-28T04:21:38;14.85;;;9.00;;
43678;SDS011;29279;50.858;4.392;2023-02-28T04:24:05;21.35;;;11.00;;
43678;SDS011;29279;50.858;4.392;2023-02-28T04:26:33;18.42;;;9.63;;
43678;SDS011;29279;50.858;4.392;2023-02-28T04:29:01;17.88;;;9.88;;
43678;SDS011;29279;50.858;4.392;2023-02-28T04:31:28;19.65;;;9.68;;
43678;SDS011;29279;50.858;4.392;2023-02-28T04:33:54;18.10;;;9.27;;
43678;SDS011;29279;50.858;4.392;2023-02-28T04:36:20;24.13;;;10.05;;
43678;SDS011;29279;50.858;4.392;2023-02-28T04:38:47;18.08;;;9.43;;
43678;SDS011;29279;50.858;4.392;2023-02-28T04:41:13;13.77;;;9.38;;
43678;SDS011;29279;50.858;4.392;2023-02-28T04:43:39;19.70;;;9.38;;
43678;SDS011;29279;50.858;4.392;2023-02-28T04:46:05;18.67;;;10.13;;
43678;SDS011;29279;50.858;4.392;2023-02-28T04:48:34;25.40;;;10.10;;
43678;SDS011;29279;50.858;4.392;2023-02-28T04:51:02;18.65;;;9.38;;
43678;SDS011;29279;50.858;4.392;2023-02-28T04:53:30;17.90;;;9.18;;
43678;SDS011;29279;50.858;4.392;2023-02-28T04:55:56;18.75;;;9.32;;
43678;SDS011;29279;50.858;4.392;2023-02-28T04:58:22;16.10;;;10.27;;
43678;SDS011;29279;50.858;4.392;2023-02-28T05:00:49;18.30;;;10.18;;
43678;SDS011;29279;50.858;4.392;2023-02-28T05:03:18;20.40;;;10.07;;
43678;SDS011;29279;50.858;4.392;2023-02-28T05:05:45;16.98;;;9.63;;
43678;SDS011;29279;50.858;4.392;2023-02-28T05:08:11;19.17;;;9.70;;
43678;SDS011;29279;50.858;4.392;2023-02-28T05:10:37;19.35;;;9.35;;
43678;SDS011;29279;50.858;4.392;2023-02-28T05:13:03;17.90;;;9.57;;
43678;SDS011;29279;50.858;4.392;2023-02-28T05:15:29;17.65;;;9.93;;
43678;SDS011;29279;50.858;4.392;2023-02-28T05:17:54;17.60;;;10.10;;
43678;SDS011;29279;50.858;4.392;2023-02-28T05:20:21;25.02;;;11.70;;
43678;SDS011;29279;50.858;4.392;2023-02-28T05:22:47;24.42;;;10.57;;
43678;SDS011;29279;50.858;4.392;2023-02-28T05:25:13;18.80;;;9.48;;
43678;SDS011;29279;50.858;4.392;2023-02-28T05:27:45;23.50;;;11.00;;
43678;SDS011;29279;50.858;4.392;2023-02-28T05:30:10;15.25;;;9.50;;
43678;SDS011;29279;50.858;4.392;2023-02-28T05:32:37;20.52;;;9.23;;
43678;SDS011;29279;50.858;4.392;2023-02-28T05:35:04;18.10;;;9.75;;
43678;SDS011;29279;50.858;4.392;2023-02-28T05:37:30;18.88;;;9.85;;
43678;SDS011;29279;50.858;4.392;2023-02-28T05:39:56;20.70;;;10.52;;
43678;SDS011;29279;50.858;4.392;2023-02-28T05:42:21;18.98;;;9.90;;
43678;SDS011;29279;50.858;4.392;2023-02-28T05:44:47;22.60;;;9.27;;
43678;SDS011;29279;50.858;4.392;2023-02-28T05:47:13;19.20;;;9.23;;
43678;SDS011;29279;50.858;4.392;2023-02-28T05:49:40;19.40;;;8.77;;
43678;SDS011;29279;50.858;4.392;2023-02-28T05:52:06;21.23;;;8.90;;
43678;SDS011;29279;50.858;4.392;2023-02-28T05:54:32;16.95;;;9.80;;
43678;SDS011;29279;50.858;4.392;2023-02-28T05:56:58;17.33;;;9.38;;
43678;SDS011;29279;50.858;4.392;2023-02-28T05:59:23;18.67;;;8.90;;
43678;SDS011;29279;50.858;4.392;2023-02-28T06:01:49;21.20;;;9.27;;
43678;SDS011;29279;50.858;4.392;2023-02-28T06:04:16;18.63;;;9.35;;
43678;SDS011;29279;50.858;4.392;2023-02-28T06:06:44;16.55;;;9.70;;
43678;SDS011;29279;50.858;4.392;2023-02-28T06:09:11;13.88;;;8.50;;
43678;SDS011;29279;50.858;4.392;2023-02-28T06:11:37;15.50;;;8.88;;
43678;SDS011;29279;50.858;4.392;2023-02-28T06:14:02;22.17;;;9.50;;
43678;SDS011;29279;50.858;4.392;2023-02-28T06:16:30;19.30;;;8.90;;
43678;SDS011;29279;50.858;4.392;2023-02-28T06:18:57;18.05;;;9.20;;
43678;SDS011;29279;50.858;4.392;2023-02-28T06:21:24;19.13;;;9.73;;
43678;SDS011;29279;50.858;4.392;2023-02-28T06:23:52;23.08;;;9.90;;
43678;SDS011;29279;50.858;4.392;2023-02-28T06:26:18;18.75;;;8.73;;
43678;SDS011;29279;50.858;4.392;2023-02-28T06:28:44;16.00;;;8.68;;
43678;SDS011;29279;50.858;4.392;2023-02-28T06:31:10;17.10;;;8.93;;
43678;SDS011;29279;50.858;4.392;2023-02-28T06:33:38;21.85;;;9.80;;
43678;SDS011;29279;50.858;4.392;2023-02-28T06:36:05;17.50;;;8.50;;
43678;SDS011;29279;50.858;4.392;2023-02-28T06:38:32;23.90;;;9.55;;
43678;SDS011;29279;50.858;4.392;2023-02-28T06:40:58;21.40;;;8.70;;
43678;SDS011;29279;50.858;4.392;2023-02-28T06:43:27;17.17;;;9.23;;
43678;SDS011;29279;50.858;4.392;2023-02-28T06:45:55;15.88;;;8.80;;
43678;SDS011;29279;50.858;4.392;2023-02-28T06:48:23;19.75;;;8.50;;
43678;SDS011;29279;50.858;4.392;2023-02-28T06:50:49;15.70;;;8.63;;
43678;SDS011;29279;50.858;4.392;2023-02-28T06:53:15;18.30;;;9.30;;
43678;SDS011;29279;50.858;4.392;2023-02-28T06:55:41;17.60;;;8.85;;
43678;SDS011;29279;50.858;4.392;2023-02-28T06:58:07;21.40;;;8.55;;
43678;SDS011;29279;50.858;4.392;2023-02-28T07:00:44;13.52;;;7.75;;
43678;SDS011;29279;50.858;4.392;2023-02-28T07:03:11;20.88;;;8.65;;
43678;SDS011;29279;50.858;4.392;2023-02-28T07:05:38;19.00;;;8.98;;
43678;SDS011;29279;50.858;4.392;2023-02-28T07:08:05;17.77;;;9.20;;
43678;SDS011;29279;50.858;4.392;2023-02-28T07:10:31;23.10;;;8.82;;
43678;SDS011;29279;50.858;4.392;2023-02-28T07:12:58;18.27;;;8.73;;
43678;SDS011;29279;50.858;4.392;2023-02-28T07:15:24;20.05;;;8.60;;
43678;SDS011;29279;50.858;4.392;2023-02-28T07:17:50;19.20;;;9.05;;
43678;SDS011;29279;50.858;4.392;2023-02-28T07:20:16;17.05;;;8.77;;
43678;SDS011;29279;50.858;4.392;2023-02-28T07:22:42;22.00;;;9.32;;
43678;SDS011;29279;50.858;4.392;2023-02-28T07:25:08;24.17;;;9.27;;
43678;SDS011;29279;50.858;4.392;2023-02-28T07:27:35;19.10;;;8.88;;
43678;SDS011;29279;50.858;4.392;2023-02-28T07:30:00;21.60;;;9.63;;
43678;SDS011;29279;50.858;4.392;2023-02-28T07:32:29;20.60;;;8.25;;
43678;SDS011;29279;50.858;4.392;2023-02-28T07:34:54;13.68;;;8.07;;
43678;SDS011;29279;50.858;4.392;2023-02-28T07:37:20;26.67;;;8.13;;
43678;SDS011;29279;50.858;4.392;2023-02-28T07:39:46;20.73;;;8.50;;
43678;SDS011;29279;50.858;4.392;2023-02-28T07:42:12;16.35;;;7.63;;
43678;SDS011;29279;50.858;4.392;2023-02-28T07:44:41;17.13;;;7.70;;
43678;SDS011;29279;50.858;4.392;2023-02-28T07:47:10;20.35;;;7.57;;
43678;SDS011;29279;50.858;4.392;2023-02-28T07:49:36;17.25;;;7.53;;
43678;SDS011;29279;50.858;4.392;2023-02-28T07:52:03;15.10;;;7.00;;
43678;SDS011;29279;50.858;4.392;2023-02-28T07:54:36;12.30;;;6.07;;
43678;SDS011;29279;50.858;4.392;2023-02-28T07:57:01;23.48;;;6.97;;
43678;SDS011;29279;50.858;4.392;2023-02-28T07:59:33;11.27;;;5.90;;
43678;SDS011;29279;50.858;4.392;2023-02-28T08:01:59;17.33;;;6.53;;
43678;SDS011;29279;50.858;4.392;2023-02-28T08:04:25;14.43;;;5.57;;
43678;SDS011;29279;50.858;4.392;2023-02-28T08:06:50;9.63;;;5.13;;
43678;SDS011;29279;50.858;4.392;2023-02-28T08:09:19;12.75;;;5.55;;
43678;SDS011;29279;50.858;4.392;2023-02-28T08:11:44;10.10;;;5.05;;
43678;SDS011;29279;50.858;4.392;2023-02-28T08:14:10;13.48;;;5.25;;
43678;SDS011;29279;50.858;4.392;2023-02-28T08:16:36;9.23;;;5.22;;
43678;SDS011;29279;50.858;4.392;2023-02-28T08:19:02;11.00;;;5.43;;
43678;SDS011;29279;50.858;4.392;2023-02-28T08:21:27;13.05;;;4.72;;
43678;SDS011;29279;50.858;4.392;2023-02-28T08:23:53;20.08;;;5.40;;
43678;SDS011;29279;50.858;4.392;2023-02-28T08:26:19;11.35;;;4.70;;
43678;SDS011;29279;50.858;4.392;2023-02-28T08:28:45;8.35;;;4.63;;
43678;SDS011;29279;50.858;4.392;2023-02-28T08:31:11;11.48;;;4.93;;
43678;SDS011;29279;50.858;4.392;2023-02-28T08:33:39;11.10;;;4.60;;
43678;SDS011;29279;50.858;4.392;2023-02-28T08:36:06;7.22;;;4.18;;
43678;SDS011;29279;50.858;4.392;2023-02-28T08:38:32;7.05;;;3.92;;
43678;SDS011;29279;50.858;4.392;2023-02-28T08:40:59;6.35;;;3.60;;
43678;SDS011;29279;50.858;4.392;2023-02-28T08:43:28;10.10;;;4.25;;
43678;SDS011;29279;50.858;4.392;2023-02-28T08:45:57;7.57;;;3.92;;
43678;SDS011;29279;50.858;4.392;2023-02-28T08:48:23;10.30;;;4.57;;
43678;SDS011;29279;50.858;4.392;2023-02-28T08:51:03;9.90;;;4.05;;
43678;SDS011;29279;50.858;4.392;2023-02-28T08:53:31;6.60;;;3.22;;
43678;SDS011;29279;50.858;4.392;2023-02-28T08:55:58;8.32;;;3.70;;
43678;SDS011;29279;50.858;4.392;2023-02-28T08:58:28;5.50;;;3.13;;
43678;SDS011;29279;50.858;4.392;2023-02-28T09:00:54;9.38;;;3.70;;
43678;SDS011;29279;50.858;4.392;2023-02-28T09:03:21;8.10;;;3.72;;
43678;SDS011;29279;50.858;4.392;2023-02-28T09:05:54;9.10;;;3.95;;
43678;SDS011;29279;50.858;4.392;2023-02-28T09:08:21;6.90;;;3.47;;
43678;SDS011;29279;50.858;4.392;2023-02-28T09:10:48;8.70;;;3.70;;
43678;SDS011;29279;50.858;4.392;2023-02-28T09:13:13;6.28;;;3.25;;
43678;SDS011;29279;50.858;4.392;2023-02-28T09:15:39;14.75;;;3.67;;
43678;SDS011;29279;50.858;4.392;2023-02-28T09:18:05;7.13;;;3.10;;
43678;SDS011;29279;50.858;4.392;2023-02-28T09:20:30;6.82;;;3.47;;
43678;SDS011;29279;50.858;4.392;2023-02-28T09:22:56;5.47;;;3.00;;
43678;SDS011;29279;50.858;4.392;2023-02-28T09:25:22;5.63;;;3.10;;
43678;SDS011;29279;50.858;4.392;2023-02-28T09:27:47;6.05;;;3.55;;
43678;SDS011;29279;50.858;4.392;2023-02-28T09:30:13;7.85;;;3.10;;
43678;SDS011;29279;50.858;4.392;2023-02-28T09:32:39;7.05;;;3.13;;
43678;SDS011;29279;50.858;4.392;2023-02-28T09:35:05;8.77;;;3.45;;
43678;SDS011;29279;50.858;4.392;2023-02-28T09:37:31;5.22;;;2.72;;
43678;SDS011;29279;50.858;4.392;2023-02-28T09:39:57;6.28;;;2.63;;
43678;SDS011;29279;50.858;4.392;2023-02-28T09:42:31;4.45;;;2.60;;
43678;SDS011;29279;50.858;4.392;2023-02-28T09:44:59;3.97;;;2.42;;
43678;SDS011;29279;50.858;4.392;2023-02-28T09:47:29;7.45;;;2.50;;
43678;SDS011;29279;50.858;4.392;2023-02-28T09:52:51;6.18;;;2.78;;
43678;SDS011;29279;50.858;4.392;2023-02-28T09:58:11;4.63;;;2.45;;
43678;SDS011;29279;50.858;4.392;2023-02-28T10:00:58;6.22;;;2.45;;
43678;SDS011;29279;50.858;4.392;2023-02-28T10:06:12;5.90;;;2.70;;
43678;SDS011;29279;50.858;4.392;2023-02-28T10:08:45;3.92;;;2.58;;
43678;SDS011;29279;50.858;4.392;2023-02-28T10:11:29;5.47;;;2.60;;
43678;SDS011;29279;50.858;4.392;2023-02-28T10:19:09;3.65;;;2.05;;
43678;SDS011;29279;50.858;4.392;2023-02-28T10:21:47;6.25;;;2.20;;
43678;SDS011;29279;50.858;4.392;2023-02-28T10:24:42;6.18;;;2.30;;
43678;SDS011;29279;50.858;4.392;2023-02-28T10:27:17;6.80;;;2.45;;
43678;SDS011;29279;50.858;4.392;2023-02-28T10:29:55;7.38;;;2.55;;
43678;SDS011;29279;50.858;4.392;2023-02-28T10:32:24;4.63;;;2.28;;
43678;SDS011;29279;50.858;4.392;2023-02-28T10:35:00;4.43;;;2.08;;
43678;SDS011;29279;50.858;4.392;2023-02-28T10:37:26;9.45;;;5.55;;
43678;SDS011;29279;50.858;4.392;2023-02-28T10:39:53;6.47;;;2.58;;
43678;SDS011;29279;50.858;4.392;2023-02-28T10:42:25;3.50;;;1.80;;
43678;SDS011;29279;50.858;4.392;2023-02-28T10:47:35;8.13;;;1.80;;
43678;SDS011;29279;50.858;4.392;2023-02-28T10:50:23;9.55;;;1.73;;
43678;SDS011;29279;50.858;4.392;2023-02-28T10:52:51;5.32;;;1.63;;
43678;SDS011;29279;50.858;4.392;2023-02-28T10:55:23;3.20;;;1.40;;
43678;SDS011;29279;50.858;4.392;2023-02-28T10:57:50;5.43;;;1.70;;
43678;SDS011;29279;50.858;4.392;2023-02-28T11:02:56;3.20;;;1.55;;
43678;SDS011;29279;50.858;4.392;2023-02-28T11:07:51;4.93;;;2.00;;
43678;SDS011;29279;50.858;4.392;2023-02-28T11:10:19;2.85;;;1.73;;
43678;SDS011;29279;50.858;4.392;2023-02-28T11:12:47;3.88;;;1.88;;
43678;SDS011;29279;50.858;4.392;2023-02-28T11:15:23;2.92;;;1.52;;
43678;SDS011;29279;50.858;4.392;2023-02-28T11:17:59;6.25;;;2.40;;
43678;SDS011;29279;50.858;4.392;2023-02-28T11:20:26;4.90;;;1.83;;
43678;SDS011;29279;50.858;4.392;2023-02-28T11:22:55;3.75;;;2.00;;
43678;SDS011;29279;50.858;4.392;2023-02-28T11:25:24;3.70;;;2.20;;
43678;SDS011;29279;50.858;4.392;2023-02-28T11:27:54;9.50;;;2.60;;
43678;SDS011;29279;50.858;4.392;2023-02-28T11:30:34;5.82;;;2.60;;
43678;SDS011;29279;50.858;4.392;2023-02-28T11:36:27;10.07;;;2.60;;
43678;SDS011;29279;50.858;4.392;2023-02-28T11:38:58;4.25;;;2.35;;
43678;SDS011;29279;50.858;4.392;2023-02-28T11:47:32;5.87;;;2.17;;
43678;SDS011;29279;50.858;4.392;2023-02-28T11:56:10;5.63;;;2.40;;
43678;SDS011;29279;50.858;4.392;2023-02-28T12:04:25;5.68;;;2.55;;
43678;SDS011;29279;50.858;4.392;2023-02-28T12:10:14;3.20;;;2.22;;
43678;SDS011;29279;50.858;4.392;2023-02-28T12:17:57;4.20;;;2.33;;
43678;SDS011;29279;50.858;4.392;2023-02-28T12:20:38;3.95;;;2.63;;
43678;SDS011;29279;50.858;4.392;2023-02-28T12:26:30;5.53;;;1.95;;
43678;SDS011;29279;50.858;4.392;2023-02-28T12:31:40;5.20;;;2.28;;
43678;SDS011;29279;50.858;4.392;2023-02-28T12:34:25;3.92;;;2.00;;
43678;SDS011;29279;50.858;4.392;2023-02-28T12:36:58;6.53;;;2.20;;
43678;SDS011;29279;50.858;4.392;2023-02-28T12:39:32;4.28;;;2.40;;
43678;SDS011;29279;50.858;4.392;2023-02-28T12:42:30;4.88;;;2.30;;
43678;SDS011;29279;50.858;4.392;2023-02-28T12:44:58;4.85;;;2.10;;
43678;SDS011;29279;50.858;4.392;2023-02-28T12:47:27;7.53;;;2.03;;
43678;SDS011;29279;50.858;4.392;2023-02-28T12:52:40;4.32;;;2.10;;
43678;SDS011;29279;50.858;4.392;2023-02-28T12:55:38;3.33;;;1.85;;
43678;SDS011;29279;50.858;4.392;2023-02-28T13:09:15;5.53;;;2.00;;
43678;SDS011;29279;50.858;4.392;2023-02-28T13:11:49;3.35;;;1.73;;
43678;SDS011;29279;50.858;4.392;2023-02-28T13:17:03;7.20;;;2.15;;
43678;SDS011;29279;50.858;4.392;2023-02-28T13:19:29;3.28;;;1.67;;
43678;SDS011;29279;50.858;4.392;2023-02-28T13:21:57;5.60;;;1.83;;
43678;SDS011;29279;50.858;4.392;2023-02-28T13:27:11;4.70;;;2.13;;
43678;SDS011;29279;50.858;4.392;2023-02-28T13:29:50;4.60;;;2.10;;
43678;SDS011;29279;50.858;4.392;2023-02-28T13:32:20;5.07;;;2.30;;
43678;SDS011;29279;50.858;4.392;2023-02-28T13:42:50;2.92;;;1.77;;
43678;SDS011;29279;50.858;4.392;2023-02-28T13:48:14;3.65;;;1.90;;
43678;SDS011;29279;50.858;4.392;2023-02-28T13:50:24;6.05;;;1.90;;
43678;SDS011;29279;50.858;4.392;2023-02-28T14:07:05;3.58;;;1.70;;
43678;SDS011;29279;50.858;4.392;2023-02-28T14:09:37;4.38;;;2.30;;
43678;SDS011;29279;50.858;4.392;2023-02-28T14:21:10;4.10;;;1.90;;
43678;SDS011;29279;50.858;4.392;2023-02-28T14:23:55;5.18;;;1.80;;
43678;SDS011;29279;50.858;4.392;2023-02-28T14:32:06;4.63;;;1.60;;
43678;SDS011;29279;50.858;4.392;2023-02-28T14:35:02;5.28;;;1.88;;
43678;SDS011;29279;50.858;4.392;2023-02-28T14:37:39;6.80;;;1.80;;
43678;SDS011;29279;50.858;4.392;2023-02-28T14:40:21;6.53;;;2.17;;
43678;SDS011;29279;50.858;4.392;2023-02-28T14:42:54;7.22;;;2.38;;
43678;SDS011;29279;50.858;4.392;2023-02-28T14:45:22;2.55;;;1.80;;
43678;SDS011;29279;50.858;4.392;2023-02-28T14:47:51;8.95;;;2.63;;
43678;SDS011;29279;50.858;4.392;2023-02-28T14:50:18;6.25;;;1.90;;
43678;SDS011;29279;50.858;4.392;2023-02-28T14:52:45;4.82;;;2.03;;
43678;SDS011;29279;50.858;4.392;2023-02-28T14:55:16;7.05;;;2.47;;
43678;SDS011;29279;50.858;4.392;2023-02-28T14:57:56;6.80;;;2.28;;
43678;SDS011;29279;50.858;4.392;2023-02-28T15:00:27;3.25;;;1.83;;
43678;SDS011;29279;50.858;4.392;2023-02-28T15:02:58;3.10;;;1.90;;
43678;SDS011;29279;50.858;4.392;2023-02-28T15:08:01;4.32;;;2.20;;
43678;SDS011;29279;50.858;4.392;2023-02-28T15:10:29;7.00;;;2.10;;
43678;SDS011;29279;50.858;4.392;2023-02-28T15:12:56;7.55;;;2.53;;
43678;SDS011;29279;50.858;4.392;2023-02-28T15:15:58;8.20;;;2.67;;
43678;SDS011;29279;50.858;4.392;2023-02-28T15:21:03;8.27;;;2.17;;
43678;SDS011;29279;50.858;4.392;2023-02-28T15:23:42;7.90;;;2.30;;
43678;SDS011;29279;50.858;4.392;2023-02-28T15:26:13;5.60;;;2.45;;
43678;SDS011;29279;50.858;4.392;2023-02-28T15:28:44;10.13;;;5.18;;
43678;SDS011;29279;50.858;4.392;2023-02-28T15:31:45;9.07;;;2.88;;
43678;SDS011;29279;50.858;4.392;2023-02-28T15:34:16;4.70;;;2.67;;
43678;SDS011;29279;50.858;4.392;2023-02-28T15:36:45;4.80;;;2.70;;
43678;SDS011;29279;50.858;4.392;2023-02-28T15:39:22;5.45;;;2.30;;
43678;SDS011;29279;50.858;4.392;2023-02-28T15:42:10;4.97;;;3.03;;
43678;SDS011;29279;50.858;4.392;2023-02-28T15:44:42;8.77;;;2.95;;
43678;SDS011;29279;50.858;4.392;2023-02-28T15:52:37;5.70;;;2.33;;
43678;SDS011;29279;50.858;4.392;2023-02-28T15:55:10;3.35;;;2.22;;
43678;SDS011;29279;50.858;4.392;2023-02-28T15:57:42;5.07;;;2.25;;
43678;SDS011;29279;50.858;4.392;2023-02-28T16:00:11;7.90;;;2.90;;
43678;SDS011;29279;50.858;4.392;2023-02-28T16:02:40;6.93;;;3.88;;
43678;SDS011;29279;50.858;4.392;2023-02-28T16:07:31;12.93;;;3.00;;
43678;SDS011;29279;50.858;4.392;2023-02-28T16:09:58;4.05;;;2.38;;
43678;SDS011;29279;50.858;4.392;2023-02-28T16:12:25;5.63;;;2.97;;
43678;SDS011;29279;50.858;4.392;2023-02-28T16:14:53;15.73;;;3.00;;
43678;SDS011;29279;50.858;4.392;2023-02-28T16:17:21;10.48;;;3.00;;
43678;SDS011;29279;50.858;4.392;2023-02-28T16:19:49;7.68;;;2.63;;
43678;SDS011;29279;50.858;4.392;2023-02-28T16:22:15;13.48;;;3.08;;
43678;SDS011;29279;50.858;4.392;2023-02-28T16:24:41;5.28;;;3.00;;
43678;SDS011;29279;50.858;4.392;2023-02-28T16:27:10;30.02;;;4.15;;
43678;SDS011;29279;50.858;4.392;2023-02-28T16:29:52;9.00;;;2.47;;
43678;SDS011;29279;50.858;4.392;2023-02-28T16:32:18;6.78;;;2.60;;
43678;SDS011;29279;50.858;4.392;2023-02-28T16:34:44;8.70;;;2.75;;
43678;SDS011;29279;50.858;4.392;2023-02-28T16:37:14;8.90;;;2.88;;
43678;SDS011;29279;50.858;4.392;2023-02-28T16:39:41;5.82;;;2.65;;
43678;SDS011;29279;50.858;4.392;2023-02-28T16:42:14;12.00;;;3.53;;
43678;SDS011;29279;50.858;4.392;2023-02-28T16:44:44;9.15;;;2.63;;
43678;SDS011;29279;50.858;4.392;2023-02-28T16:47:11;9.10;;;2.95;;
43678;SDS011;29279;50.858;4.392;2023-02-28T16:49:37;30.35;;;4.18;;
43678;SDS011;29279;50.858;4.392;2023-02-28T16:52:03;25.42;;;3.63;;
43678;SDS011;29279;50.858;4.392;2023-02-28T16:54:29;40.83;;;3.63;;
43678;SDS011;29279;50.858;4.392;2023-02-28T16:56:55;22.25;;;3.33;;
43678;SDS011;29279;50.858;4.392;2023-02-28T16:59:24;43.10;;;4.63;;
43678;SDS011;29279;50.858;4.392;2023-02-28T17:01:52;8.68;;;2.85;;
43678;SDS011;29279;50.858;4.392;2023-02-28T17:04:18;11.50;;;3.20;;
43678;SDS011;29279;50.858;4.392;2023-02-28T17:06:44;7.70;;;3.03;;
43678;SDS011;29279;50.858;4.392;2023-02-28T17:09:15;9.32;;;2.83;;
43678;SDS011;29279;50.858;4.392;2023-02-28T17:11:42;5.32;;;2.60;;
43678;SDS011;29279;50.858;4.392;2023-02-28T17:14:08;4.20;;;2.33;;
43678;SDS011;29279;50.858;4.392;2023-02-28T17:16:34;7.22;;;3.05;;
43678;SDS011;29279;50.858;4.392;2023-02-28T17:19:03;5.32;;;2.17;;
43678;SDS011;29279;50.858;4.392;2023-02-28T17:21:30;5.10;;;3.13;;
43678;SDS011;29279;50.858;4.392;2023-02-28T17:23:58;5.88;;;2.70;;
43678;SDS011;29279;50.858;4.392;2023-02-28T17:26:24;10.75;;;3.28;;
43678;SDS011;29279;50.858;4.392;2023-02-28T17:28:50;6.05;;;3.00;;
43678;SDS011;29279;50.858;4.392;2023-02-28T17:31:17;9.38;;;3.50;;
43678;SDS011;29279;50.858;4.392;2023-02-28T17:33:43;14.27;;;3.70;;
43678;SDS011;29279;50.858;4.392;2023-02-28T17:36:16;8.55;;;3.25;;